createdAt,value
2022-08-07T00:00:24.772Z,102765.56
2022-08-07T00:02:51.175Z,102765.81
2022-08-07T00:05:20.503Z,102763.56
2022-08-07T00:07:46.987Z,102771.41
2022-08-07T00:10:26.184Z,102750.56
2022-08-07T00:13:00.209Z,102754.00
2022-08-07T00:15:36.023Z,102748.88
2022-08-07T00:18:05.428Z,102755.47
2022-08-07T00:20:35.355Z,102755.59
2022-08-07T00:23:02.499Z,102755.66
2022-08-07T00:25:28.943Z,102750.63
2022-08-07T00:28:07.598Z,102747.91
2022-08-07T00:30:34.006Z,102748.34
2022-08-07T00:33:02.238Z,102757.66
2022-08-07T00:35:30.006Z,102748.31
2022-08-07T00:37:57.902Z,102740.31
2022-08-07T00:40:36.674Z,102742.53
2022-08-07T00:43:10.004Z,102729.41
2022-08-07T00:45:38.856Z,102736.88
2022-08-07T00:48:10.277Z,102731.25
2022-08-07T00:50:50.279Z,102723.97
2022-08-07T00:53:20.075Z,102720.16
2022-08-07T00:56:00.463Z,102728.50
2022-08-07T00:58:28.477Z,102730.75
2022-08-07T01:00:54.902Z,102731.97
2022-08-07T01:03:25.443Z,102721.41
2022-08-07T01:06:08.406Z,102723.06
2022-08-07T01:08:34.921Z,102726.88
2022-08-07T01:12:04.821Z,102723.19
2022-08-07T01:13:55.532Z,102715.75
2022-08-07T01:16:30.379Z,102714.59
2022-08-07T01:18:57.972Z,102720.56
2022-08-07T01:21:26.225Z,102689.88
2022-08-07T01:23:55.247Z,102725.66
2022-08-07T01:26:22.673Z,102698.94
2022-08-07T01:28:53.859Z,102708.41
2022-08-07T01:31:21.339Z,102730.34
2022-08-07T01:33:55.472Z,102724.97
2022-08-07T01:36:33.808Z,102718.41
2022-08-07T01:39:09.882Z,102720.31
2022-08-07T01:41:39.001Z,102707.88
2022-08-07T01:44:07.464Z,102700.22
2022-08-07T01:46:34.460Z,102699.22
2022-08-07T01:49:02.224Z,102713.59
2022-08-07T01:52:03.815Z,102704.00
2022-08-07T01:54:33.387Z,102701.97
2022-08-07T01:57:20.482Z,102702.09
2022-08-07T02:00:12.849Z,102689.91
2022-08-07T02:03:18.939Z,102693.59
2022-08-07T02:06:01.004Z,102700.63
2022-08-07T02:08:29.763Z,102692.22
2022-08-07T02:10:59.283Z,102704.00
2022-08-07T02:13:58.193Z,102711.13
2022-08-07T02:16:14.610Z,102687.44
2022-08-07T02:18:46.823Z,102673.44
2022-08-07T02:21:16.072Z,102680.19
2022-08-07T02:23:43.764Z,102674.00
2022-08-07T02:26:32.463Z,102699.25
2022-08-07T02:28:58.397Z,102688.97
2022-08-07T02:31:28.418Z,102703.66
2022-08-07T02:34:03.446Z,102689.38
2022-08-07T02:36:32.735Z,102682.66
2022-08-07T02:39:01.098Z,102667.16
2022-08-07T02:41:33.446Z,102707.22
2022-08-07T02:44:05.033Z,102688.97
2022-08-07T02:46:34.072Z,102683.63
2022-08-07T02:49:04.525Z,102695.69
2022-08-07T02:51:42.390Z,102699.00
2022-08-07T02:54:17.962Z,102702.97
2022-08-07T02:56:46.581Z,102694.47
2022-08-07T02:59:16.329Z,102699.81
2022-08-07T03:01:42.991Z,102679.91
2022-08-07T03:04:14.491Z,102680.59
2022-08-07T03:06:46.144Z,102685.53
2022-08-07T03:09:41.843Z,102667.69
2022-08-07T03:12:05.357Z,102691.03
2022-08-07T03:14:36.088Z,102681.69
2022-08-07T03:17:04.548Z,102687.72
2022-08-07T03:19:36.950Z,102684.88
2022-08-07T03:22:05.503Z,102697.75
2022-08-07T03:24:32.000Z,102690.38
2022-08-07T03:27:01.280Z,102681.16
2022-08-07T03:29:37.765Z,102685.25
2022-08-07T03:32:08.301Z,102691.03
2022-08-07T03:34:39.233Z,102674.69
2022-08-07T03:37:11.916Z,102686.34
2022-08-07T03:39:46.249Z,102685.53
2022-08-07T03:42:26.112Z,102679.09
2022-08-07T03:44:57.808Z,102673.19
2022-08-07T03:47:25.207Z,102680.47
2022-08-07T03:49:55.968Z,102686.38
2022-08-07T03:52:27.028Z,102671.41
2022-08-07T03:54:57.317Z,102663.31
2022-08-07T03:59:07.202Z,102683.91
2022-08-07T04:00:21.097Z,102673.59
2022-08-07T04:02:56.702Z,102669.97
2022-08-07T04:05:24.007Z,102658.91
2022-08-07T04:07:56.006Z,102658.06
2022-08-07T04:10:22.565Z,102668.34
2022-08-07T04:12:51.134Z,102676.28
2022-08-07T04:15:18.239Z,102687.91
2022-08-07T04:18:59.891Z,102693.72
2022-08-07T04:20:31.881Z,102664.66
2022-08-07T04:23:02.228Z,102683.06
2022-08-07T04:25:36.026Z,102669.75
2022-08-07T04:28:08.105Z,102671.28
2022-08-07T04:30:39.569Z,102692.13
2022-08-07T04:33:14.066Z,102693.22
2022-08-07T04:35:44.606Z,102666.31
2022-08-07T04:38:17.079Z,102673.63
2022-08-07T04:40:52.816Z,102679.63
2022-08-07T04:44:11.862Z,102705.28
2022-08-07T04:46:34.893Z,102690.34
2022-08-07T04:49:24.239Z,102702.56
2022-08-07T04:52:14.769Z,102683.19
2022-08-07T04:54:52.727Z,102686.50
2022-08-07T04:58:13.074Z,102696.00
2022-08-07T05:00:40.957Z,102697.50
2022-08-07T05:03:17.265Z,102694.19
2022-08-07T05:06:00.463Z,102699.81
2022-08-07T05:08:59.870Z,102700.78
2022-08-07T05:11:28.020Z,102705.56
2022-08-07T05:14:52.508Z,102712.59
2022-08-07T05:17:50.320Z,102710.88
2022-08-07T05:20:10.038Z,102695.38
2022-08-07T05:22:38.265Z,102695.91
2022-08-07T05:25:08.745Z,102691.75
2022-08-07T05:28:02.514Z,102685.28
2022-08-07T05:30:30.146Z,102703.00
2022-08-07T05:32:59.754Z,102699.53
2022-08-07T05:35:33.382Z,102698.59
2022-08-07T05:38:09.826Z,102691.75
2022-08-07T05:40:37.234Z,102699.31
2022-08-07T05:43:17.768Z,102695.84
2022-08-07T05:45:47.880Z,102709.28
2022-08-07T05:48:15.271Z,102709.38
2022-08-07T05:50:43.341Z,102700.41
2022-08-07T05:54:12.423Z,102716.78
2022-08-07T05:56:03.815Z,102710.97
2022-08-07T05:58:36.778Z,102708.22
2022-08-07T06:01:05.976Z,102692.97
2022-08-07T06:03:56.528Z,102696.75
2022-08-07T06:06:23.920Z,102695.72
2022-08-07T06:08:57.092Z,102693.13
2022-08-07T06:11:25.115Z,102708.44
2022-08-07T06:14:12.077Z,102688.66
2022-08-07T06:16:40.012Z,102716.94
2022-08-07T06:19:07.076Z,102702.84
2022-08-07T06:22:14.570Z,102686.47
2022-08-07T06:24:45.437Z,102710.47
2022-08-07T06:27:09.075Z,102697.06
2022-08-07T06:29:38.907Z,102701.41
2022-08-07T06:32:05.727Z,102715.53
2022-08-07T06:34:32.171Z,102715.25
2022-08-07T06:36:59.703Z,102701.28
2022-08-07T06:40:18.023Z,102707.91
2022-08-07T06:42:19.084Z,102712.16
2022-08-07T06:44:50.980Z,102720.72
2022-08-07T06:47:18.504Z,102719.22
2022-08-07T06:49:51.110Z,102722.19
2022-08-07T06:52:31.778Z,102713.69
2022-08-07T06:55:33.578Z,102712.84
2022-08-07T06:57:56.843Z,102708.59
2022-08-07T07:00:24.158Z,102706.97
2022-08-07T07:02:54.249Z,102706.31
2022-08-07T07:06:05.436Z,102710.91
2022-08-07T07:08:18.911Z,102717.44
2022-08-07T07:10:56.780Z,102698.72
2022-08-07T07:13:43.636Z,102696.25
2022-08-07T07:16:27.476Z,102701.47
2022-08-07T07:18:59.889Z,102708.75
2022-08-07T07:21:40.237Z,102714.00
2022-08-07T07:24:20.319Z,102707.69
2022-08-07T07:26:52.246Z,102720.56
2022-08-07T07:29:39.626Z,102709.72
2022-08-07T07:32:10.386Z,102710.25
2022-08-07T07:34:39.644Z,102719.09
2022-08-07T07:37:21.939Z,102721.75
2022-08-07T07:39:56.230Z,102717.50
2022-08-07T07:42:32.439Z,102718.94
2022-08-07T07:45:02.007Z,102714.13
2022-08-07T07:47:29.214Z,102717.50
2022-08-07T07:50:33.336Z,102700.75
2022-08-07T07:52:47.088Z,102703.41
2022-08-07T07:55:14.494Z,102694.03
2022-08-07T07:57:51.502Z,102695.34
2022-08-07T08:00:29.053Z,102691.84
2022-08-07T08:03:04.656Z,102685.38
2022-08-07T08:05:50.455Z,102692.38
2022-08-07T08:08:34.791Z,102689.25
2022-08-07T08:11:09.234Z,102691.16
2022-08-07T08:13:54.754Z,102677.47
2022-08-07T08:16:25.303Z,102700.44
2022-08-07T08:18:54.662Z,102686.19
2022-08-07T08:21:55.673Z,102673.66
2022-08-07T08:24:57.308Z,102686.34
2022-08-07T08:27:37.253Z,102690.63
2022-08-07T08:30:07.048Z,102649.28
2022-08-07T08:32:39.287Z,102686.16
2022-08-07T08:35:08.795Z,102676.72
2022-08-07T08:38:00.630Z,102684.09
2022-08-07T08:41:02.722Z,102686.19
2022-08-07T08:43:55.894Z,102672.13
2022-08-07T08:46:39.009Z,102663.16
2022-08-07T08:49:13.215Z,102669.41
2022-08-07T08:52:14.480Z,102647.31
2022-08-07T08:55:21.149Z,102644.50
2022-08-07T08:58:07.170Z,102666.75
2022-08-07T09:00:51.847Z,102667.19
2022-08-07T09:03:48.115Z,102661.66
2022-08-07T09:06:25.547Z,102658.41
2022-08-07T09:09:00.122Z,102661.66
2022-08-07T09:11:50.862Z,102658.63
2022-08-07T09:14:34.612Z,102667.59
2022-08-07T09:18:04.230Z,102660.53
2022-08-07T09:20:35.341Z,102649.97
2022-08-07T09:24:31.770Z,102654.50
2022-08-07T09:26:07.236Z,102658.63
2022-08-07T09:30:06.965Z,102657.81
2022-08-07T09:31:56.073Z,102643.63
2022-08-07T09:34:38.136Z,102657.44
2022-08-07T09:37:16.091Z,102650.50
2022-08-07T09:39:54.900Z,102652.16
2022-08-07T09:42:46.976Z,102655.06
2022-08-07T09:47:26.194Z,102647.00
2022-08-07T09:48:56.080Z,102635.94
2022-08-07T09:52:33.517Z,102653.09
2022-08-07T09:55:37.007Z,102651.38
2022-08-07T09:58:35.859Z,102651.81
2022-08-07T10:01:51.740Z,102643.53
2022-08-07T10:04:47.698Z,102640.47
2022-08-07T10:07:52.205Z,102628.44
2022-08-07T10:11:16.994Z,102639.72
2022-08-07T10:13:55.361Z,102630.66
2022-08-07T10:16:24.664Z,102631.28
2022-08-07T10:19:01.216Z,102624.31
2022-08-07T10:22:12.313Z,102621.94
2022-08-07T10:24:49.635Z,102615.25
2022-08-07T10:27:47.029Z,102618.72
2022-08-07T10:30:18.526Z,102606.78
2022-08-07T10:33:03.913Z,102613.03
2022-08-07T10:35:55.097Z,102594.44
2022-08-07T10:38:42.329Z,102594.63
2022-08-07T10:41:54.666Z,102596.91
2022-08-07T10:44:38.398Z,102587.13
2022-08-07T10:47:26.795Z,102590.84
2022-08-07T10:50:49.801Z,102590.75
2022-08-07T10:53:28.065Z,102584.88
2022-08-07T10:56:30.913Z,102574.13
2022-08-07T10:59:21.412Z,102582.38
2022-08-07T11:02:11.869Z,102575.97
2022-08-07T11:04:57.800Z,102582.88
2022-08-07T11:07:58.605Z,102579.56
2022-08-07T11:10:56.594Z,102573.44
2022-08-07T11:14:42.344Z,102570.59
2022-08-07T11:16:51.314Z,102572.38
2022-08-07T11:19:29.927Z,102546.41
2022-08-07T11:22:18.937Z,102550.84
2022-08-07T11:25:06.821Z,102553.53
2022-08-07T11:28:02.680Z,102562.91
2022-08-07T11:30:43.652Z,102560.22
2022-08-07T11:33:48.708Z,102562.50
2022-08-07T11:36:33.742Z,102566.44
2022-08-07T11:39:10.032Z,102562.91
2022-08-07T11:42:01.356Z,102566.13
2022-08-07T11:44:58.175Z,102555.38
2022-08-07T11:47:59.114Z,102553.72
2022-08-07T11:50:33.160Z,102543.66
2022-08-07T11:53:27.874Z,102532.94
2022-08-07T11:56:28.066Z,102535.00
2022-08-07T12:00:08.179Z,102539.59
2022-08-07T12:02:37.617Z,102517.53
2022-08-07T12:05:28.322Z,102529.13
2022-08-07T12:08:25.953Z,102534.69
2022-08-07T12:11:21.876Z,102517.25
2022-08-07T12:13:54.668Z,102528.84
2022-08-07T12:16:30.291Z,102527.41
2022-08-07T12:19:21.343Z,102532.03
2022-08-07T12:22:38.466Z,102526.31
2022-08-07T12:25:08.111Z,102529.38
2022-08-07T12:28:09.478Z,102528.53
2022-08-07T12:30:36.387Z,102538.56
2022-08-07T12:33:18.984Z,102536.16
2022-08-07T12:35:58.145Z,102527.72
2022-08-07T12:38:36.881Z,102523.94
2022-08-07T12:41:09.862Z,102520.88
2022-08-07T12:44:03.674Z,102524.47
2022-08-07T12:47:01.344Z,102537.63
2022-08-07T12:49:48.855Z,102522.00
2022-08-07T12:52:33.935Z,102508.84
2022-08-07T12:55:21.649Z,102524.50
2022-08-07T12:58:06.974Z,102512.41
2022-08-07T13:00:50.345Z,102522.34
2022-08-07T13:04:02.623Z,102517.50
2022-08-07T13:07:00.880Z,102515.22
2022-08-07T13:10:18.901Z,102517.28
2022-08-07T13:13:13.105Z,102505.13
2022-08-07T13:16:05.454Z,102493.63
2022-08-07T13:18:57.274Z,102498.16
2022-08-07T13:21:37.338Z,102497.25
2022-08-07T13:24:29.181Z,102502.78
2022-08-07T13:27:05.419Z,102484.31
2022-08-07T13:30:05.653Z,102495.47
2022-08-07T13:32:41.218Z,102497.38
2022-08-07T13:35:12.481Z,102482.97
2022-08-07T13:38:00.812Z,102466.44
2022-08-07T13:40:42.178Z,102472.28
2022-08-07T13:43:15.314Z,102469.31
2022-08-07T13:46:12.526Z,102487.50
2022-08-07T13:48:34.514Z,102479.97
2022-08-07T13:51:27.675Z,102475.31
2022-08-07T13:54:02.058Z,102465.84
2022-08-07T13:56:36.313Z,102483.44
2022-08-07T13:59:17.605Z,102484.59
2022-08-07T14:02:04.691Z,102484.66
2022-08-07T14:04:36.338Z,102473.56
2022-08-07T14:07:09.293Z,102458.78
2022-08-07T14:10:01.402Z,102466.06
2022-08-07T14:12:41.766Z,102478.88
2022-08-07T14:15:18.775Z,102481.28
2022-08-07T14:18:24.530Z,102472.50
2022-08-07T14:20:48.949Z,102448.34
2022-08-07T14:23:31.559Z,102457.16
2022-08-07T14:26:30.470Z,102466.03
2022-08-07T14:29:10.584Z,102440.78
2022-08-07T14:31:57.684Z,102463.00
2022-08-07T14:34:29.749Z,102423.72
2022-08-07T14:37:02.031Z,102450.78
2022-08-07T14:40:18.193Z,102454.78
2022-08-07T14:42:25.198Z,102451.56
2022-08-07T14:44:53.931Z,102464.13
2022-08-07T14:47:28.340Z,102458.41
2022-08-07T14:49:59.464Z,102436.47
2022-08-07T14:52:28.968Z,102425.72
2022-08-07T14:54:58.509Z,102436.22
2022-08-07T14:57:54.404Z,102438.81
2022-08-07T15:00:13.042Z,102453.03
2022-08-07T15:03:18.917Z,102451.56
2022-08-07T15:14:16.897Z,102469.81
2022-08-07T15:20:30.878Z,102458.22
2022-08-07T15:25:36.638Z,102467.84
2022-08-07T15:28:36.417Z,102466.00
2022-08-07T15:31:04.588Z,102469.34
2022-08-07T15:37:02.803Z,102448.44
2022-08-07T15:39:18.519Z,102446.63
2022-08-07T15:42:45.154Z,102460.09
2022-08-07T15:44:52.143Z,102439.63
2022-08-07T15:47:19.678Z,102446.50
2022-08-07T15:50:05.326Z,102438.47
2022-08-07T15:52:34.738Z,102438.03
2022-08-07T15:55:08.963Z,102446.59
2022-08-07T15:57:48.246Z,102442.94
2022-08-07T16:00:32.063Z,102432.97
2022-08-07T16:03:03.593Z,102433.53
2022-08-07T16:05:33.409Z,102405.44
2022-08-07T16:08:30.697Z,102434.06
2022-08-07T16:11:17.368Z,102439.72
2022-08-07T16:14:11.998Z,102444.00
2022-08-07T16:17:00.239Z,102436.28
2022-08-07T16:20:04.656Z,102434.66
2022-08-07T16:22:54.849Z,102434.06
2022-08-07T16:26:00.549Z,102440.63
2022-08-07T16:30:07.536Z,102441.28
2022-08-07T16:31:51.238Z,102443.84
2022-08-07T16:34:48.094Z,102446.16
2022-08-07T16:38:02.787Z,102429.16
2022-08-07T16:40:37.488Z,102434.41
2022-08-07T16:44:02.271Z,102430.53
2022-08-07T16:47:06.815Z,102443.38
2022-08-07T16:50:28.442Z,102435.63
2022-08-07T16:53:48.347Z,102438.91
2022-08-07T16:55:53.469Z,102423.06
2022-08-07T16:58:23.410Z,102420.31
2022-08-07T17:01:27.189Z,102432.91
2022-08-07T17:04:33.377Z,102431.16
2022-08-07T17:07:10.168Z,102437.72
2022-08-07T17:10:07.122Z,102411.19
2022-08-07T17:12:53.100Z,102435.06
2022-08-07T17:15:44.260Z,102439.53
2022-08-07T17:18:26.479Z,102425.19
2022-08-07T17:20:54.895Z,102428.56
2022-08-07T17:23:43.257Z,102432.66
2022-08-07T17:26:24.177Z,102406.81
2022-08-07T17:30:12.672Z,102428.88
2022-08-07T17:32:31.201Z,102426.63
2022-08-07T17:35:51.817Z,102424.72
2022-08-07T17:38:33.178Z,102420.06
2022-08-07T17:42:00.750Z,102397.31
2022-08-07T17:44:34.060Z,102429.09
2022-08-07T17:47:17.190Z,102424.00
2022-08-07T17:50:01.784Z,102423.09
2022-08-07T17:52:41.164Z,102429.22
2022-08-07T17:55:13.210Z,102427.94
2022-08-07T17:58:07.469Z,102433.84
2022-08-07T18:00:49.193Z,102433.09
2022-08-07T18:03:25.604Z,102422.13
2022-08-07T18:06:01.515Z,102415.28
2022-08-07T18:08:34.588Z,102421.06
2022-08-07T18:12:17.623Z,102425.00
2022-08-07T18:14:18.731Z,102422.56
2022-08-07T18:17:13.562Z,102443.47
2022-08-07T18:21:02.299Z,102441.88
2022-08-07T18:22:38.740Z,102441.34
2022-08-07T18:25:23.977Z,102413.69
2022-08-07T18:28:36.109Z,102449.00
2022-08-07T18:31:18.428Z,102447.53
2022-08-07T18:33:55.057Z,102448.41
2022-08-07T18:36:53.874Z,102441.91
2022-08-07T18:40:42.973Z,102458.19
2022-08-07T18:43:36.899Z,102453.72
2022-08-07T18:46:24.703Z,102456.53
2022-08-07T18:50:30.132Z,102458.56
2022-08-07T18:52:54.325Z,102457.56
2022-08-07T18:55:57.265Z,102466.63
2022-08-07T18:58:42.400Z,102451.53
2022-08-07T19:02:18.263Z,102470.41
2022-08-07T19:04:37.935Z,102462.91
2022-08-07T19:07:34.190Z,102444.31
2022-08-07T19:10:12.103Z,102462.59
2022-08-07T19:12:57.763Z,102472.13
2022-08-07T19:16:04.274Z,102471.47
2022-08-07T19:18:34.595Z,102476.22
2022-08-07T19:21:51.188Z,102465.13
2022-08-07T19:24:36.207Z,102473.38
2022-08-07T19:29:02.782Z,102481.09
2022-08-07T19:31:05.262Z,102474.97
2022-08-07T19:32:46.146Z,102479.56
2022-08-07T19:35:19.666Z,102490.56
2022-08-07T19:37:57.751Z,102475.84
2022-08-07T19:40:31.889Z,102500.06
2022-08-07T19:43:01.096Z,102495.06
2022-08-07T19:46:05.540Z,102504.47
2022-08-07T19:48:24.320Z,102509.56
2022-08-07T19:50:54.564Z,102508.44
2022-08-07T19:54:34.120Z,102506.56
2022-08-07T19:57:52.348Z,102509.53
2022-08-07T19:58:58.258Z,102510.69
2022-08-07T20:01:52.943Z,102505.81
2022-08-07T20:04:31.914Z,102515.09
2022-08-07T20:07:09.216Z,102506.97
2022-08-07T20:10:35.178Z,102508.22
2022-08-07T20:12:34.908Z,102506.75
2022-08-07T20:15:04.083Z,102514.56
2022-08-07T20:17:38.702Z,102503.31
2022-08-07T20:20:07.351Z,102512.09
2022-08-07T20:22:36.007Z,102505.94
2022-08-07T20:25:07.092Z,102527.53
2022-08-07T20:27:57.955Z,102530.59
2022-08-07T20:30:31.117Z,102530.72
2022-08-07T20:33:00.466Z,102529.16
2022-08-07T20:35:51.804Z,102531.88
2022-08-07T20:38:21.529Z,102524.25
2022-08-07T20:40:56.469Z,102525.50
2022-08-07T20:43:27.931Z,102525.38
2022-08-07T20:46:29.107Z,102519.31
2022-08-07T20:49:53.958Z,102528.91
2022-08-07T20:51:40.286Z,102520.50
2022-08-07T20:54:09.481Z,102518.09
2022-08-07T20:56:46.100Z,102521.81
2022-08-07T21:00:04.499Z,102531.97
2022-08-07T21:02:27.602Z,102534.75
2022-08-07T21:04:54.940Z,102524.50
2022-08-07T21:07:25.041Z,102531.16
2022-08-07T21:09:59.371Z,102514.78
2022-08-07T21:12:31.057Z,102525.88
2022-08-07T21:14:59.705Z,102519.28
2022-08-07T21:18:02.747Z,102536.44
2022-08-07T21:20:30.362Z,102524.34
2022-08-07T21:23:08.042Z,102534.75
2022-08-07T21:26:09.448Z,102548.81
2022-08-07T21:28:52.200Z,102539.28
2022-08-07T21:32:10.857Z,102496.75
2022-08-07T21:34:48.702Z,102532.31
2022-08-07T21:37:24.340Z,102513.06
2022-08-07T21:39:57.994Z,102536.31
2022-08-07T21:42:49.197Z,102526.75
2022-08-07T21:46:04.750Z,102524.03
2022-08-07T21:48:27.883Z,102520.97
2022-08-07T21:51:02.677Z,102531.97
2022-08-07T21:53:46.441Z,102520.84
2022-08-07T21:56:42.420Z,102536.56
2022-08-07T22:00:05.063Z,102535.56
2022-08-07T22:02:44.021Z,102528.38
2022-08-07T22:05:43.979Z,102530.97
2022-08-07T22:08:04.275Z,102543.44
2022-08-07T22:10:33.819Z,102550.16
2022-08-07T22:13:09.136Z,102536.59
2022-08-07T22:16:41.169Z,102547.91
2022-08-07T22:18:37.146Z,102549.06
2022-08-07T22:22:01.822Z,102532.50
2022-08-07T22:24:19.792Z,102554.31
2022-08-07T22:26:50.465Z,102534.28
2022-08-07T22:29:49.533Z,102544.44
2022-08-07T22:32:42.337Z,102540.91
2022-08-07T22:35:11.031Z,102552.84
2022-08-07T22:38:03.718Z,102560.22
2022-08-07T22:40:51.626Z,102558.91
2022-08-07T22:43:25.073Z,102554.50
2022-08-07T22:47:03.780Z,102559.91
2022-08-07T22:49:59.639Z,102560.25
2022-08-07T22:52:37.665Z,102559.41
2022-08-07T22:55:17.789Z,102560.91
2022-08-07T22:58:04.940Z,102562.84
2022-08-07T23:00:38.677Z,102559.59
2022-08-07T23:03:57.359Z,102565.66
2022-08-07T23:06:51.538Z,102554.81
2022-08-07T23:10:37.967Z,102573.34
2022-08-07T23:13:05.063Z,102573.50
2022-08-07T23:16:06.757Z,102564.66
2022-08-07T23:19:38.840Z,102567.44
2022-08-07T23:22:28.610Z,102564.81
2022-08-07T23:25:21.113Z,102565.38
2022-08-07T23:28:21.130Z,102571.44
2022-08-07T23:31:06.462Z,102570.31
2022-08-07T23:34:38.259Z,102579.28
2022-08-07T23:37:37.252Z,102577.41
2022-08-07T23:40:49.380Z,102569.22
2022-08-07T23:43:23.994Z,102569.16
2022-08-07T23:46:23.512Z,102561.25
2022-08-07T23:49:05.167Z,102575.31
2022-08-07T23:53:01.513Z,102576.31
2022-08-07T23:54:52.073Z,102568.78
2022-08-07T23:57:34.821Z,102574.38
